createdAt,value
2023-04-15T00:02:00.051Z,99914.25
2023-04-15T00:04:28.469Z,99922.64
2023-04-15T00:06:57.802Z,99921.42
2023-04-15T00:09:25.857Z,99923.60
2023-04-15T00:11:54.495Z,99922.36
2023-04-15T00:14:28.496Z,99921.45
2023-04-15T00:16:57.600Z,99928.00
2023-04-15T00:19:26.063Z,99925.40
2023-04-15T00:21:58.942Z,99923.14
2023-04-15T00:24:27.010Z,99920.96
2023-04-15T00:26:55.052Z,99913.66
2023-04-15T00:29:29.856Z,99914.00
2023-04-15T00:31:58.729Z,99909.20
2023-04-15T00:34:27.991Z,99903.92
2023-04-15T00:36:56.147Z,99895.28
2023-04-15T00:39:24.793Z,99904.44
2023-04-15T00:41:53.242Z,99912.16
2023-04-15T00:44:21.600Z,99908.02
2023-04-15T00:46:51.371Z,99914.06
2023-04-15T00:49:20.353Z,99921.92
2023-04-15T00:51:51.800Z,99929.45
2023-04-15T00:54:19.901Z,99919.45
2023-04-15T00:56:48.166Z,99914.92
2023-04-15T00:59:16.842Z,99921.70
2023-04-15T01:01:45.088Z,99924.79
2023-04-15T01:04:14.084Z,99921.84
2023-04-15T01:06:42.365Z,99926.68
2023-04-15T01:09:12.019Z,99933.28
2023-04-15T01:11:40.668Z,99931.21
2023-04-15T01:14:10.910Z,99933.02
2023-04-15T01:16:40.026Z,99934.50
2023-04-15T01:19:12.274Z,99933.35
2023-04-15T01:21:41.183Z,99942.86
2023-04-15T01:24:10.475Z,99943.79
2023-04-15T01:26:39.441Z,99948.22
2023-04-15T01:29:09.813Z,99955.75
2023-04-15T01:31:38.045Z,99951.11
2023-04-15T01:34:07.470Z,99952.55
2023-04-15T01:36:35.767Z,99956.57
2023-04-15T01:39:04.640Z,99952.45
2023-04-15T01:41:32.974Z,99963.94
2023-04-15T01:44:02.145Z,99959.52
2023-04-15T01:46:30.824Z,99951.95
2023-04-15T01:48:59.280Z,99952.66
2023-04-15T01:51:30.856Z,99956.54
2023-04-15T01:53:59.114Z,99962.76
2023-04-15T01:56:27.140Z,99968.59
2023-04-15T01:58:55.883Z,99959.40
2023-04-15T02:01:24.085Z,99963.69
2023-04-15T02:03:53.037Z,99975.83
2023-04-15T02:06:21.336Z,99975.08
2023-04-15T02:08:56.350Z,99978.27
2023-04-15T02:11:25.716Z,99972.43
2023-04-15T02:13:54.271Z,99973.11
2023-04-15T02:16:22.346Z,99974.90
2023-04-15T02:18:54.452Z,99977.25
2023-04-15T02:21:22.802Z,99978.52
2023-04-15T02:23:52.900Z,99975.42
2023-04-15T02:26:23.488Z,99976.88
2023-04-15T02:28:51.562Z,99982.22
2023-04-15T02:31:19.807Z,99985.58
2023-04-15T02:33:47.922Z,99978.86
2023-04-15T02:36:16.267Z,99985.57
2023-04-15T02:38:45.025Z,99998.11
2023-04-15T02:41:17.477Z,99996.83
2023-04-15T02:43:48.297Z,99993.60
2023-04-15T02:46:17.064Z,100003.11
2023-04-15T02:48:46.510Z,100002.05
2023-04-15T02:51:16.222Z,99999.75
2023-04-15T02:53:44.224Z,99994.64
2023-04-15T02:56:16.012Z,100001.54
2023-04-15T02:58:45.371Z,99994.09
2023-04-15T03:01:13.864Z,100001.70
2023-04-15T03:03:42.906Z,99995.92
2023-04-15T03:06:11.846Z,100007.38
2023-04-15T03:08:40.045Z,99997.54
2023-04-15T03:11:08.595Z,100008.02
2023-04-15T03:13:39.644Z,100001.01
2023-04-15T03:16:14.744Z,99998.51
2023-04-15T03:18:44.231Z,99998.82
2023-04-15T03:21:12.445Z,100000.20
2023-04-15T03:23:40.873Z,99995.25
2023-04-15T03:26:09.430Z,99999.81
2023-04-15T03:28:37.774Z,100000.72
2023-04-15T03:31:08.350Z,99997.73
2023-04-15T03:33:37.350Z,99993.52
2023-04-15T03:36:06.107Z,100001.48
2023-04-15T03:38:35.479Z,100004.63
2023-04-15T03:41:03.811Z,100013.45
2023-04-15T03:43:32.169Z,100005.35
2023-04-15T03:46:01.925Z,100004.35
2023-04-15T03:48:31.102Z,99999.05
2023-04-15T03:51:01.406Z,100006.84
2023-04-15T03:53:29.414Z,100004.55
2023-04-15T03:55:57.577Z,99998.75
2023-04-15T03:58:25.606Z,100009.48
2023-04-15T04:00:54.977Z,100011.42
2023-04-15T04:03:24.107Z,100019.04
2023-04-15T04:05:53.921Z,100023.20
2023-04-15T04:08:22.576Z,100016.46
2023-04-15T04:10:50.823Z,100021.54
2023-04-15T04:13:22.067Z,100028.97
2023-04-15T04:16:04.800Z,100016.77
2023-04-15T04:18:33.478Z,100023.80
2023-04-15T04:21:01.670Z,100021.47
2023-04-15T04:23:33.069Z,100018.82
2023-04-15T04:26:01.402Z,100025.19
2023-04-15T04:28:29.664Z,100024.83
2023-04-15T04:30:58.506Z,100026.10
2023-04-15T04:33:28.200Z,100024.64
2023-04-15T04:35:56.255Z,100020.57
2023-04-15T04:38:25.997Z,100020.08
2023-04-15T04:40:54.175Z,100018.35
2023-04-15T04:43:22.401Z,100013.63
2023-04-15T04:45:50.945Z,100013.65
2023-04-15T04:48:19.998Z,100007.33
2023-04-15T04:50:48.252Z,100006.25
2023-04-15T04:53:16.474Z,100018.44
2023-04-15T04:55:45.142Z,100016.19
2023-04-15T04:58:13.181Z,100015.27
2023-04-15T05:00:42.974Z,100015.04
2023-04-15T05:03:11.700Z,100023.85
2023-04-15T05:05:41.289Z,100020.65
2023-04-15T05:08:12.597Z,100022.00
2023-04-15T05:10:41.958Z,100012.41
2023-04-15T05:13:10.636Z,100016.49
2023-04-15T05:15:41.571Z,100025.35
2023-04-15T05:18:10.998Z,100035.46
2023-04-15T05:20:40.485Z,100040.09
2023-04-15T05:23:08.543Z,100042.40
2023-04-15T05:25:36.957Z,100044.87
2023-04-15T05:28:05.406Z,100040.46
2023-04-15T05:30:33.571Z,100041.66
2023-04-15T05:33:08.023Z,100037.63
2023-04-15T05:35:36.274Z,100040.06
2023-04-15T05:38:04.312Z,100040.05
2023-04-15T05:40:32.359Z,100041.14
2023-04-15T05:43:01.697Z,100053.50
2023-04-15T05:45:33.774Z,100051.37
2023-04-15T05:48:02.047Z,100043.21
2023-04-15T05:50:30.775Z,100040.37
2023-04-15T05:52:59.423Z,100043.70
2023-04-15T05:55:27.955Z,100034.34
2023-04-15T05:57:56.089Z,100044.03
2023-04-15T06:00:24.226Z,100044.42
2023-04-15T06:02:53.945Z,100049.42
2023-04-15T06:05:22.190Z,100061.83
2023-04-15T06:07:50.488Z,100056.39
2023-04-15T06:10:19.047Z,100065.63
2023-04-15T06:12:47.707Z,100059.78
2023-04-15T06:15:17.266Z,100050.58
2023-04-15T06:17:46.404Z,100064.32
2023-04-15T06:20:16.681Z,100068.20
2023-04-15T06:22:45.593Z,100063.80
2023-04-15T06:25:14.250Z,100061.52
2023-04-15T06:27:43.112Z,100076.01
2023-04-15T06:30:12.172Z,100066.84
2023-04-15T06:32:41.806Z,100078.30
2023-04-15T06:35:10.346Z,100077.11
2023-04-15T06:37:38.661Z,100081.19
2023-04-15T06:40:08.528Z,100077.96
2023-04-15T06:42:38.408Z,100078.80
2023-04-15T06:45:08.722Z,100085.02
2023-04-15T06:47:37.712Z,100083.77
2023-04-15T06:50:06.770Z,100080.55
2023-04-15T06:52:36.938Z,100079.66
2023-04-15T06:55:05.814Z,100075.58
2023-04-15T06:57:35.064Z,100083.14
2023-04-15T07:00:06.018Z,100077.70
2023-04-15T07:02:35.333Z,100080.92
2023-04-15T07:05:04.822Z,100079.15
2023-04-15T07:07:38.538Z,100074.71
2023-04-15T07:10:08.753Z,100078.22
2023-04-15T07:12:36.786Z,100086.84
2023-04-15T07:15:06.937Z,100082.33
2023-04-15T07:17:35.583Z,100078.82
2023-04-15T07:20:05.851Z,100072.46
2023-04-15T07:22:34.334Z,100065.73
2023-04-15T07:25:04.345Z,100060.95
2023-04-15T07:27:32.666Z,100071.28
2023-04-15T07:30:01.022Z,100071.77
2023-04-15T07:32:29.576Z,100087.50
2023-04-15T07:34:58.526Z,100086.77
2023-04-15T07:37:28.514Z,100089.52
2023-04-15T07:39:57.605Z,100086.81
2023-04-15T07:42:29.421Z,100095.46
2023-04-15T07:44:57.754Z,100092.45
2023-04-15T07:47:25.975Z,100098.01
2023-04-15T07:49:57.644Z,100096.52
2023-04-15T07:52:25.989Z,100093.34
2023-04-15T07:54:54.259Z,100095.24
2023-04-15T07:57:23.029Z,100091.64
2023-04-15T07:59:51.349Z,100085.96
2023-04-15T08:02:19.917Z,100093.49
2023-04-15T08:04:48.916Z,100090.98
2023-04-15T08:07:18.927Z,100104.40
2023-04-15T08:09:47.268Z,100109.01
2023-04-15T08:12:16.132Z,100099.30
2023-04-15T08:14:53.608Z,100101.11
2023-04-15T08:17:23.841Z,100107.15
2023-04-15T08:19:53.921Z,100105.34
2023-04-15T08:22:22.773Z,100097.67
2023-04-15T08:24:58.116Z,100091.13
2023-04-15T08:27:27.697Z,100096.02
2023-04-15T08:29:58.635Z,100102.58
2023-04-15T08:32:27.421Z,100096.20
2023-04-15T08:34:58.116Z,100097.67
2023-04-15T08:37:27.108Z,100106.87
2023-04-15T08:39:55.134Z,100102.64
2023-04-15T08:42:44.858Z,100092.02
2023-04-15T08:45:13.506Z,100105.82
2023-04-15T08:47:43.523Z,100097.50
2023-04-15T08:50:11.922Z,100112.02
2023-04-15T08:52:42.583Z,100096.83
2023-04-15T08:55:10.758Z,100092.19
2023-04-15T08:57:39.975Z,100105.16
2023-04-15T09:00:10.513Z,100101.27
2023-04-15T09:02:39.952Z,100103.29
2023-04-15T09:05:08.835Z,100097.88
2023-04-15T09:07:37.030Z,100110.09
2023-04-15T09:10:06.894Z,100108.35
2023-04-15T09:12:37.053Z,100106.56
2023-04-15T09:15:06.216Z,100101.29
2023-04-15T09:17:35.294Z,100096.63
2023-04-15T09:20:10.940Z,100110.79
2023-04-15T09:25:42.409Z,100124.35
2023-04-15T09:28:10.195Z,100130.34
2023-04-15T09:30:37.971Z,100135.10
2023-04-15T09:33:07.971Z,100138.66
2023-04-15T09:35:36.926Z,100137.04
2023-04-15T09:38:09.112Z,100133.45
2023-04-15T09:40:37.317Z,100136.48
2023-04-15T09:43:05.504Z,100121.36
2023-04-15T09:45:32.794Z,100134.77
2023-04-15T09:48:15.003Z,100119.58
2023-04-15T09:50:42.213Z,100119.67
2023-04-15T09:53:16.408Z,100123.65
2023-04-15T09:55:50.708Z,100117.49
2023-04-15T09:58:25.794Z,100120.16
2023-04-15T10:00:54.677Z,100118.17
2023-04-15T10:03:24.039Z,100131.56
2023-04-15T10:05:52.167Z,100133.17
2023-04-15T10:08:21.038Z,100143.85
2023-04-15T10:10:48.116Z,100129.05
2023-04-15T10:13:21.689Z,100124.11
2023-04-15T10:15:58.716Z,100127.30
2023-04-15T10:18:28.141Z,100140.40
2023-04-15T10:20:55.043Z,100133.81
2023-04-15T10:23:22.468Z,100140.38
2023-04-15T10:25:49.769Z,100141.78
2023-04-15T10:28:16.966Z,100139.80
2023-04-15T10:30:43.875Z,100153.94
2023-04-15T10:33:10.684Z,100146.05
2023-04-15T10:35:37.507Z,100151.73
2023-04-15T10:38:39.907Z,100154.20
2023-04-15T10:41:12.809Z,100150.84
2023-04-15T10:43:39.906Z,100155.20
2023-04-15T10:46:07.104Z,100150.80
2023-04-15T10:48:33.756Z,100158.93
2023-04-15T10:51:01.692Z,100145.52
2023-04-15T10:53:29.449Z,100146.45
2023-04-15T10:55:57.122Z,100149.81
2023-04-15T10:58:25.198Z,100154.38
2023-04-15T11:00:52.902Z,100159.14
2023-04-15T11:03:37.228Z,100151.56
2023-04-15T11:06:05.823Z,100143.77
2023-04-15T11:09:02.228Z,100164.62
2023-04-15T11:12:08.979Z,100154.39
2023-04-15T11:14:44.382Z,100162.52
2023-04-15T11:17:11.088Z,100151.75
2023-04-15T11:19:38.310Z,100143.59
2023-04-15T11:22:11.153Z,100137.38
2023-04-15T11:24:47.906Z,100142.83
2023-04-15T11:27:23.677Z,100153.96
2023-04-15T11:29:52.635Z,100146.03
2023-04-15T11:32:21.167Z,100141.58
2023-04-15T11:34:48.474Z,100144.23
2023-04-15T11:37:15.072Z,100146.23
2023-04-15T11:39:42.189Z,100146.27
2023-04-15T11:42:18.468Z,100138.46
2023-04-15T11:44:45.329Z,100140.98
2023-04-15T11:47:23.076Z,100143.13
2023-04-15T11:57:32.592Z,100146.95
2023-04-15T12:00:00.624Z,100138.83
2023-04-15T12:02:33.430Z,100138.83
2023-04-15T12:05:08.793Z,100138.50
2023-04-15T12:07:59.658Z,100131.75
2023-04-15T12:10:27.784Z,100130.54
2023-04-15T12:12:56.755Z,100127.39
2023-04-15T12:15:24.889Z,100126.71
2023-04-15T12:17:55.191Z,100129.35
2023-04-15T12:20:26.879Z,100133.41
2023-04-15T12:23:05.613Z,100118.77
2023-04-15T12:25:36.832Z,100106.79
2023-04-15T12:28:11.437Z,100103.95
2023-04-15T12:30:50.351Z,100103.05
2023-04-15T12:33:23.306Z,100111.90
2023-04-15T12:35:52.046Z,100088.27
2023-04-15T12:38:20.079Z,100101.84
2023-04-15T12:40:48.136Z,100088.45
2023-04-15T12:43:16.650Z,100094.26
2023-04-15T12:45:45.205Z,100107.46
2023-04-15T12:48:13.410Z,100106.06
2023-04-15T12:50:41.686Z,100098.64
2023-04-15T12:53:10.374Z,100099.35
2023-04-15T12:55:38.571Z,100097.77
2023-04-15T12:58:06.724Z,100100.93
2023-04-15T13:00:35.245Z,100102.02
2023-04-15T13:03:06.248Z,100090.90
2023-04-15T13:05:37.162Z,100101.48
2023-04-15T13:08:06.216Z,100099.35
2023-04-15T13:10:36.746Z,100095.12
2023-04-15T13:13:05.481Z,100090.50
2023-04-15T13:15:35.141Z,100102.50
2023-04-15T13:18:03.317Z,100116.27
2023-04-15T13:20:32.019Z,100102.12
2023-04-15T13:23:00.669Z,100107.27
2023-04-15T13:25:29.043Z,100104.27
2023-04-15T13:27:57.938Z,100114.84
2023-04-15T13:30:26.111Z,100123.69
2023-04-15T13:32:54.781Z,100101.81
2023-04-15T13:35:22.998Z,100100.94
2023-04-15T13:37:51.153Z,100104.27
2023-04-15T13:40:20.489Z,100103.04
2023-04-15T13:42:48.826Z,100104.77
2023-04-15T13:45:16.965Z,100107.00
2023-04-15T13:47:45.538Z,100107.17
2023-04-15T13:50:13.631Z,100119.01
2023-04-15T13:52:42.268Z,100125.63
2023-04-15T13:55:19.907Z,100118.04
2023-04-15T13:57:50.705Z,100133.06
2023-04-15T14:00:19.271Z,100111.54
2023-04-15T14:02:47.519Z,100118.93
2023-04-15T14:05:15.794Z,100110.63
2023-04-15T14:07:45.535Z,100112.16
2023-04-15T14:10:13.918Z,100109.34
2023-04-15T14:12:42.979Z,100120.70
2023-04-15T14:15:11.390Z,100129.00
2023-04-15T14:17:39.489Z,100128.80
2023-04-15T14:20:09.516Z,100126.09
2023-04-15T14:22:38.378Z,100129.80
2023-04-15T14:25:07.427Z,100135.80
2023-04-15T14:27:37.215Z,100143.05
2023-04-15T14:30:06.426Z,100136.34
2023-04-15T14:32:34.522Z,100132.25
2023-04-15T14:35:03.143Z,100142.51
2023-04-15T14:37:31.488Z,100124.86
2023-04-15T14:39:59.626Z,100132.43
2023-04-15T14:42:27.755Z,100141.23
2023-04-15T14:44:55.889Z,100145.95
2023-04-15T14:47:24.266Z,100143.46
2023-04-15T14:49:53.382Z,100146.27
2023-04-15T14:52:21.462Z,100146.27
2023-04-15T14:54:49.554Z,100149.13
2023-04-15T14:57:17.772Z,100151.77
2023-04-15T14:59:46.155Z,100143.98
2023-04-15T15:02:17.360Z,100159.52
2023-04-15T15:04:56.449Z,100146.69
2023-04-15T15:07:24.687Z,100150.73
2023-04-15T15:09:54.605Z,100152.86
2023-04-15T15:12:23.843Z,100164.35
2023-04-15T15:14:51.973Z,100140.66
2023-04-15T15:17:20.039Z,100136.43
2023-04-15T15:19:48.040Z,100137.48
2023-04-15T15:22:16.092Z,100132.52
2023-04-15T15:24:44.302Z,100128.24
2023-04-15T15:27:13.060Z,100131.09
2023-04-15T15:29:41.291Z,100121.61
2023-04-15T15:32:09.524Z,100136.64
2023-04-15T15:34:38.526Z,100129.16
2023-04-15T15:37:07.115Z,100126.34
2023-04-15T15:39:35.406Z,100132.19
2023-04-15T15:42:03.796Z,100123.92
2023-04-15T15:44:33.497Z,100125.34
2023-04-15T15:47:02.700Z,100125.15
2023-04-15T15:49:31.012Z,100134.47
2023-04-15T15:51:59.018Z,100123.88
2023-04-15T15:54:27.147Z,100107.30
2023-04-15T15:56:55.272Z,100101.17
2023-04-15T15:59:25.377Z,100105.44
2023-04-15T16:01:53.995Z,100123.48
2023-04-15T16:04:23.310Z,100127.60
2023-04-15T16:06:51.715Z,100148.04
2023-04-15T16:09:19.761Z,100144.16
2023-04-15T16:11:47.878Z,100138.70
2023-04-15T16:14:16.318Z,100132.16
2023-04-15T16:16:44.509Z,100128.46
2023-04-15T16:19:12.785Z,100128.82
2023-04-15T16:21:40.816Z,100148.05
2023-04-15T16:24:08.954Z,100158.46
2023-04-15T16:26:37.269Z,100157.22
2023-04-15T16:29:05.648Z,100159.34
2023-04-15T16:31:35.714Z,100160.92
2023-04-15T16:34:03.852Z,100169.73
2023-04-15T16:36:34.338Z,100166.20
2023-04-15T16:39:02.559Z,100161.26
2023-04-15T16:41:32.577Z,100169.21
2023-04-15T16:44:03.468Z,100163.20
2023-04-15T16:46:31.962Z,100166.74
2023-04-15T16:49:00.048Z,100175.55
2023-04-15T16:51:30.563Z,100175.56
2023-04-15T16:53:58.758Z,100183.66
2023-04-15T16:56:27.213Z,100189.14
2023-04-15T16:58:55.159Z,100188.41
2023-04-15T17:01:23.457Z,100189.48
2023-04-15T17:03:54.039Z,100187.72
2023-04-15T17:06:23.857Z,100198.84
2023-04-15T17:08:52.094Z,100209.25
2023-04-15T17:11:20.540Z,100233.42
2023-04-15T17:13:49.182Z,100227.40
2023-04-15T17:16:21.099Z,100228.98
2023-04-15T17:18:50.523Z,100230.73
2023-04-15T17:21:18.722Z,100245.92
2023-04-15T17:23:46.902Z,100244.52
2023-04-15T17:26:15.683Z,100247.87
2023-04-15T17:28:43.738Z,100247.16
2023-04-15T17:31:12.367Z,100245.40
2023-04-15T17:34:03.296Z,100235.70
2023-04-15T17:36:28.908Z,100245.41
2023-04-15T17:38:57.049Z,100248.26
2023-04-15T17:41:25.582Z,100251.25
2023-04-15T17:43:54.229Z,100252.13
2023-04-15T17:46:22.405Z,100253.91
2023-04-15T17:48:50.588Z,100245.61
2023-04-15T17:51:18.936Z,100245.61
2023-04-15T17:53:47.181Z,100233.08
2023-04-15T17:56:15.394Z,100226.39
2023-04-15T17:58:43.704Z,100221.80
2023-04-15T18:01:11.666Z,100215.09
2023-04-15T18:03:40.792Z,100210.85
2023-04-15T18:06:09.268Z,100214.88
2023-04-15T18:08:37.314Z,100200.60
2023-04-15T18:11:06.482Z,100198.46
2023-04-15T18:13:36.676Z,100202.55
2023-04-15T18:16:05.583Z,100193.19
2023-04-15T18:18:34.048Z,100201.46
2023-04-15T18:21:02.206Z,100186.66
2023-04-15T18:24:27.227Z,100188.24
2023-04-15T18:27:14.392Z,100183.66
2023-04-15T18:29:43.730Z,100185.23
2023-04-15T18:32:11.862Z,100193.89
2023-04-15T18:34:39.990Z,100203.59
2023-04-15T18:37:08.221Z,100211.87
2023-04-15T18:39:37.192Z,100214.34
2023-04-15T18:42:05.451Z,100229.15
2023-04-15T18:44:35.304Z,100230.05
2023-04-15T18:47:03.670Z,100237.63
2023-04-15T18:49:35.081Z,100236.22
2023-04-15T18:52:04.292Z,100229.69
2023-04-15T18:54:32.582Z,100236.75
2023-04-15T18:57:01.105Z,100231.81
2023-04-15T18:59:30.857Z,100243.64
2023-04-15T19:02:00.311Z,100247.15
2023-04-15T19:04:31.295Z,100234.98
2023-04-15T19:06:59.609Z,100238.34
2023-04-15T19:09:28.796Z,100241.17
2023-04-15T19:11:57.752Z,100238.00
2023-04-15T19:14:25.998Z,100238.20
2023-04-15T19:16:54.300Z,100231.83
2023-04-15T19:19:22.576Z,100226.91
2023-04-15T19:21:51.081Z,100226.73
2023-04-15T19:24:19.733Z,100231.33
2023-04-15T19:26:49.938Z,100240.64
2023-04-15T19:29:18.547Z,100235.36
2023-04-15T19:32:43.485Z,100243.84
2023-04-15T19:35:30.535Z,100243.15
2023-04-15T19:37:58.683Z,100248.43
2023-04-15T19:40:58.357Z,100243.48
2023-04-15T19:43:27.240Z,100248.43
2023-04-15T19:46:52.032Z,100251.42
2023-04-15T19:49:39.304Z,100252.66
2023-04-15T19:52:26.323Z,100249.47
2023-04-15T19:54:54.350Z,100254.08
2023-04-15T20:05:02.598Z,100253.89
2023-04-15T20:07:31.788Z,100257.07
2023-04-15T20:09:59.986Z,100259.54
2023-04-15T20:12:49.233Z,100255.66
2023-04-15T20:15:17.733Z,100260.06
2023-04-15T20:17:47.784Z,100266.77
2023-04-15T20:20:16.568Z,100265.88
2023-04-15T20:22:44.679Z,100268.19
2023-04-15T20:25:13.280Z,100268.00
2023-04-15T20:27:42.016Z,100272.06
2023-04-15T20:30:11.141Z,100268.71
2023-04-15T20:32:39.404Z,100275.61
2023-04-15T20:35:08.023Z,100273.84
2023-04-15T20:37:37.283Z,100267.13
2023-04-15T20:40:06.492Z,100264.11
2023-04-15T20:42:34.784Z,100269.05
2023-04-15T20:45:02.927Z,100277.89
2023-04-15T20:47:31.545Z,100275.77
2023-04-15T20:49:59.712Z,100278.76
2023-04-15T20:52:27.838Z,100276.30
2023-04-15T20:54:56.292Z,100277.90
2023-04-15T20:57:28.823Z,100274.02
2023-04-15T20:59:57.005Z,100267.65
2023-04-15T21:02:25.234Z,100272.41
2023-04-15T21:04:53.636Z,100272.42
2023-04-15T21:07:21.874Z,100269.06
2023-04-15T21:09:50.315Z,100274.00
2023-04-15T21:12:18.359Z,100275.23
2023-04-15T21:14:46.589Z,100278.58
2023-04-15T21:17:14.735Z,100278.40
2023-04-15T21:19:42.778Z,100278.05
2023-04-15T21:22:10.888Z,100281.57
2023-04-15T21:24:39.429Z,100281.23
2023-04-15T21:27:07.477Z,100278.59
2023-04-15T21:29:35.784Z,100284.23
2023-04-15T21:32:03.788Z,100283.17
2023-04-15T21:34:31.978Z,100287.23
2023-04-15T21:37:00.305Z,100290.40
2023-04-15T21:39:29.245Z,100293.20
2023-04-15T21:43:29.035Z,100298.54
2023-04-15T21:46:22.978Z,100290.56
2023-04-15T21:48:46.374Z,100288.75
2023-04-15T21:51:14.423Z,100295.80
2023-04-15T21:53:43.767Z,100293.66
2023-04-15T21:56:12.190Z,100294.89
2023-04-15T21:58:40.224Z,100299.83
2023-04-15T22:01:08.425Z,100302.30
2023-04-15T22:03:37.293Z,100305.13
2023-04-15T22:06:05.542Z,100297.71
2023-04-15T22:08:41.715Z,100300.71
2023-04-15T22:11:26.756Z,100299.13
2023-04-15T22:13:55.216Z,100308.65
2023-04-15T22:16:25.156Z,100303.70
2023-04-15T22:18:54.293Z,100306.54
2023-04-15T22:21:22.653Z,100307.23
2023-04-15T22:23:51.265Z,100304.93
2023-04-15T22:26:19.791Z,100306.55
2023-04-15T22:28:48.233Z,100310.95
2023-04-15T22:31:16.527Z,100310.77
2023-04-15T22:33:44.899Z,100313.77
2023-04-15T22:36:13.760Z,100310.77
2023-04-15T22:38:41.802Z,100305.98
2023-04-15T22:41:10.032Z,100306.87
2023-04-15T22:43:38.368Z,100308.29
2023-04-15T22:46:06.509Z,100310.27
2023-04-15T22:48:35.568Z,100312.39
2023-04-15T22:51:04.873Z,100309.04
2023-04-15T22:53:34.007Z,100307.26
2023-04-15T22:56:02.249Z,100309.17
2023-04-15T22:58:32.160Z,100307.05
2023-04-15T23:01:00.568Z,100308.47
2023-04-15T23:03:29.158Z,100317.33
2023-04-15T23:05:57.453Z,100313.41
2023-04-15T23:08:26.206Z,100314.46
2023-04-15T23:10:54.316Z,100316.75
2023-04-15T23:13:22.764Z,100317.80
2023-04-15T23:15:51.168Z,100314.95
2023-04-15T23:18:20.464Z,100319.70
2023-04-15T23:20:48.807Z,100320.75
2023-04-15T23:23:17.665Z,100320.91
2023-04-15T23:25:45.783Z,100318.23
2023-04-15T23:28:13.917Z,100316.48
2023-04-15T23:30:41.959Z,100317.76
2023-04-15T23:33:11.545Z,100320.27
2023-04-15T23:35:39.666Z,100321.70
2023-04-15T23:38:10.251Z,100316.56
2023-04-15T23:40:38.325Z,100323.95
2023-04-15T23:43:06.519Z,100321.80
2023-04-15T23:45:34.859Z,100321.80
2023-04-15T23:48:03.401Z,100318.42
2023-04-15T23:50:31.779Z,100319.11
2023-04-15T23:53:00.037Z,100324.58
2023-04-15T23:55:29.648Z,100322.95
2023-04-15T23:57:57.805Z,100321.35
